sensor_id;sensor_type;location;lat;lon;timestamp;pressure;altitude;pressure_sealevel;temperature;humidity
5913;BME280;2982;42.684;23.356;2023-08-06T00:02:15;93810.25;;;18.71;100.00
5913;BME280;2982;42.684;23.356;2023-08-06T00:04:41;93806.88;;;18.86;100.00
5913;BME280;2982;42.684;23.356;2023-08-06T00:07:06;93809.78;;;18.91;100.00
5913;BME280;2982;42.684;23.356;2023-08-06T00:09:31;93807.56;;;18.97;100.00
5913;BME280;2982;42.684;23.356;2023-08-06T00:11:56;93801.44;;;18.98;100.00
5913;BME280;2982;42.684;23.356;2023-08-06T00:14:22;93824.94;;;19.03;100.00
5913;BME280;2982;42.684;23.356;2023-08-06T00:16:47;93837.00;;;19.02;100.00
5913;BME280;2982;42.684;23.356;2023-08-06T00:19:12;93809.00;;;18.99;100.00
5913;BME280;2982;42.684;23.356;2023-08-06T00:21:38;93792.91;;;18.89;100.00
5913;BME280;2982;42.684;23.356;2023-08-06T00:24:03;93801.41;;;18.81;100.00
5913;BME280;2982;42.684;23.356;2023-08-06T00:26:28;93800.31;;;18.92;100.00
5913;BME280;2982;42.684;23.356;2023-08-06T00:28:53;93801.13;;;19.01;100.00
5913;BME280;2982;42.684;23.356;2023-08-06T00:31:19;93797.78;;;19.08;100.00
5913;BME280;2982;42.684;23.356;2023-08-06T00:33:44;93793.41;;;19.09;100.00
5913;BME280;2982;42.684;23.356;2023-08-06T00:36:09;93775.72;;;18.89;100.00
5913;BME280;2982;42.684;23.356;2023-08-06T00:38:35;93791.16;;;19.06;100.00
5913;BME280;2982;42.684;23.356;2023-08-06T00:41:00;93774.72;;;18.90;100.00
5913;BME280;2982;42.684;23.356;2023-08-06T00:43:25;93778.44;;;18.96;100.00
5913;BME280;2982;42.684;23.356;2023-08-06T00:45:50;93783.09;;;18.92;100.00
5913;BME280;2982;42.684;23.356;2023-08-06T00:48:16;93779.06;;;18.82;100.00
5913;BME280;2982;42.684;23.356;2023-08-06T00:50:41;93777.16;;;18.84;100.00
5913;BME280;2982;42.684;23.356;2023-08-06T00:53:07;93770.25;;;18.84;100.00
5913;BME280;2982;42.684;23.356;2023-08-06T00:55:33;93777.16;;;18.84;100.00
5913;BME280;2982;42.684;23.356;2023-08-06T00:57:58;93778.09;;;18.91;100.00
5913;BME280;2982;42.684;23.356;2023-08-06T01:00:24;93767.50;;;18.94;100.00
5913;BME280;2982;42.684;23.356;2023-08-06T01:02:49;93753.00;;;18.85;100.00
5913;BME280;2982;42.684;23.356;2023-08-06T01:05:15;93750.13;;;18.88;100.00
5913;BME280;2982;42.684;23.356;2023-08-06T01:15:58;93733.88;;;19.04;100.00
5913;BME280;2982;42.684;23.356;2023-08-06T01:18:23;93724.56;;;19.03;100.00
5913;BME280;2982;42.684;23.356;2023-08-06T01:20:49;93729.25;;;19.07;100.00
5913;BME280;2982;42.684;23.356;2023-08-06T01:23:14;93733.56;;;19.15;100.00
5913;BME280;2982;42.684;23.356;2023-08-06T01:31:30;93718.75;;;19.09;100.00
5913;BME280;2982;42.684;23.356;2023-08-06T01:33:56;93718.13;;;19.15;100.00
5913;BME280;2982;42.684;23.356;2023-08-06T01:36:23;93715.56;;;19.15;100.00
5913;BME280;2982;42.684;23.356;2023-08-06T01:38:51;93723.13;;;19.16;100.00
5913;BME280;2982;42.684;23.356;2023-08-06T01:41:16;93708.97;;;19.20;100.00
5913;BME280;2982;42.684;23.356;2023-08-06T01:43:42;93697.69;;;19.13;100.00
5913;BME280;2982;42.684;23.356;2023-08-06T01:46:07;93698.19;;;19.01;100.00
5913;BME280;2982;42.684;23.356;2023-08-06T01:48:32;93711.53;;;18.96;100.00
5913;BME280;2982;42.684;23.356;2023-08-06T01:50:57;93710.41;;;19.07;100.00
5913;BME280;2982;42.684;23.356;2023-08-06T01:53:23;93708.00;;;18.97;100.00
5913;BME280;2982;42.684;23.356;2023-08-06T01:55:49;93691.75;;;18.80;100.00
5913;BME280;2982;42.684;23.356;2023-08-06T01:58:14;93714.13;;;18.88;100.00
5913;BME280;2982;42.684;23.356;2023-08-06T02:00:40;93710.09;;;18.77;100.00
5913;BME280;2982;42.684;23.356;2023-08-06T02:03:05;93705.56;;;18.71;100.00
5913;BME280;2982;42.684;23.356;2023-08-06T02:05:31;93689.50;;;18.69;100.00
5913;BME280;2982;42.684;23.356;2023-08-06T02:10:32;93691.25;;;18.77;100.00
5913;BME280;2982;42.684;23.356;2023-08-06T02:12:57;93642.53;;;18.51;100.00
5913;BME280;2982;42.684;23.356;2023-08-06T02:15:22;93683.22;;;18.64;100.00
5913;BME280;2982;42.684;23.356;2023-08-06T02:17:47;93692.06;;;18.77;100.00
5913;BME280;2982;42.684;23.356;2023-08-06T02:20:13;93701.09;;;18.89;100.00
5913;BME280;2982;42.684;23.356;2023-08-06T02:22:38;93709.91;;;18.95;100.00
5913;BME280;2982;42.684;23.356;2023-08-06T02:25:04;93716.84;;;19.03;100.00
5913;BME280;2982;42.684;23.356;2023-08-06T02:27:29;93718.63;;;18.94;100.00
5913;BME280;2982;42.684;23.356;2023-08-06T02:29:54;93722.47;;;18.90;100.00
5913;BME280;2982;42.684;23.356;2023-08-06T02:32:19;93720.53;;;18.92;100.00
5913;BME280;2982;42.684;23.356;2023-08-06T02:34:45;93701.09;;;18.89;100.00
5913;BME280;2982;42.684;23.356;2023-08-06T02:37:10;93701.25;;;18.80;100.00
5913;BME280;2982;42.684;23.356;2023-08-06T02:39:35;93708.97;;;18.80;100.00
5913;BME280;2982;42.684;23.356;2023-08-06T02:42:01;57515.69;;;-143.17;100.00
5913;BME280;2982;42.684;23.356;2023-08-06T02:44:29;57515.69;;;-143.17;100.00
5913;BME280;2982;42.684;23.356;2023-08-06T02:46:54;57515.69;;;-143.17;100.00
5913;BME280;2982;42.684;23.356;2023-08-06T02:49:19;57515.69;;;-143.17;100.00
5913;BME280;2982;42.684;23.356;2023-08-06T02:51:45;57515.69;;;-143.17;100.00
5913;BME280;2982;42.684;23.356;2023-08-06T02:54:10;57515.69;;;-143.17;100.00
5913;BME280;2982;42.684;23.356;2023-08-06T02:56:36;57515.69;;;-143.17;100.00
5913;BME280;2982;42.684;23.356;2023-08-06T02:59:01;57515.69;;;-143.17;100.00
5913;BME280;2982;42.684;23.356;2023-08-06T03:01:26;57515.69;;;-143.17;100.00
5913;BME280;2982;42.684;23.356;2023-08-06T03:03:51;57515.69;;;-143.17;100.00
5913;BME280;2982;42.684;23.356;2023-08-06T03:06:17;57515.69;;;-143.17;100.00
5913;BME280;2982;42.684;23.356;2023-08-06T03:08:42;57515.69;;;-143.17;100.00
5913;BME280;2982;42.684;23.356;2023-08-06T03:11:07;57515.69;;;-143.17;100.00
5913;BME280;2982;42.684;23.356;2023-08-06T03:13:32;57515.69;;;-143.17;100.00
5913;BME280;2982;42.684;23.356;2023-08-06T03:15:59;57515.69;;;-143.17;100.00
5913;BME280;2982;42.684;23.356;2023-08-06T03:18:24;57515.69;;;-143.17;100.00
5913;BME280;2982;42.684;23.356;2023-08-06T03:20:50;57515.69;;;-143.17;100.00
5913;BME280;2982;42.684;23.356;2023-08-06T03:23:15;57515.69;;;-143.17;100.00
5913;BME280;2982;42.684;23.356;2023-08-06T03:25:41;57515.69;;;-143.17;100.00
5913;BME280;2982;42.684;23.356;2023-08-06T03:28:06;57515.69;;;-143.17;100.00
5913;BME280;2982;42.684;23.356;2023-08-06T03:30:31;57515.69;;;-143.17;100.00
5913;BME280;2982;42.684;23.356;2023-08-06T03:32:56;57515.69;;;-143.17;100.00
5913;BME280;2982;42.684;23.356;2023-08-06T03:35:22;57515.69;;;-143.17;100.00
5913;BME280;2982;42.684;23.356;2023-08-06T03:37:47;57515.69;;;-143.17;100.00
5913;BME280;2982;42.684;23.356;2023-08-06T03:40:12;57515.69;;;-143.17;100.00
5913;BME280;2982;42.684;23.356;2023-08-06T03:42:38;57515.69;;;-143.17;100.00
5913;BME280;2982;42.684;23.356;2023-08-06T03:45:03;57515.69;;;-143.17;100.00
5913;BME280;2982;42.684;23.356;2023-08-06T03:47:29;57515.69;;;-143.17;100.00
5913;BME280;2982;42.684;23.356;2023-08-06T03:49:54;57515.69;;;-143.17;100.00
5913;BME280;2982;42.684;23.356;2023-08-06T03:52:19;57515.69;;;-143.17;100.00
5913;BME280;2982;42.684;23.356;2023-08-06T03:54:44;57515.69;;;-143.17;100.00
5913;BME280;2982;42.684;23.356;2023-08-06T03:57:10;57515.69;;;-143.17;100.00
5913;BME280;2982;42.684;23.356;2023-08-06T03:59:35;57515.69;;;-143.17;100.00
5913;BME280;2982;42.684;23.356;2023-08-06T04:02:00;57515.69;;;-143.17;100.00
5913;BME280;2982;42.684;23.356;2023-08-06T04:04:25;57515.69;;;-143.17;100.00
5913;BME280;2982;42.684;23.356;2023-08-06T04:06:51;57515.69;;;-143.17;100.00
5913;BME280;2982;42.684;23.356;2023-08-06T04:09:16;57515.69;;;-143.17;100.00
5913;BME280;2982;42.684;23.356;2023-08-06T04:11:41;57515.69;;;-143.17;100.00
5913;BME280;2982;42.684;23.356;2023-08-06T04:14:07;57515.69;;;-143.17;100.00
5913;BME280;2982;42.684;23.356;2023-08-06T04:16:32;57515.69;;;-143.17;100.00
5913;BME280;2982;42.684;23.356;2023-08-06T04:18:57;57515.69;;;-143.17;100.00
5913;BME280;2982;42.684;23.356;2023-08-06T04:21:22;57515.69;;;-143.17;100.00
5913;BME280;2982;42.684;23.356;2023-08-06T04:23:48;57515.69;;;-143.17;100.00
5913;BME280;2982;42.684;23.356;2023-08-06T04:26:13;57515.69;;;-143.17;100.00
5913;BME280;2982;42.684;23.356;2023-08-06T04:28:38;57515.69;;;-143.17;100.00
5913;BME280;2982;42.684;23.356;2023-08-06T04:31:03;57515.69;;;-143.17;100.00
5913;BME280;2982;42.684;23.356;2023-08-06T04:33:29;57515.69;;;-143.17;100.00
5913;BME280;2982;42.684;23.356;2023-08-06T04:35:54;57515.69;;;-143.17;100.00
5913;BME280;2982;42.684;23.356;2023-08-06T04:38:20;57515.69;;;-143.17;100.00
5913;BME280;2982;42.684;23.356;2023-08-06T04:40:45;57515.69;;;-143.17;100.00
5913;BME280;2982;42.684;23.356;2023-08-06T04:43:10;57515.69;;;-143.17;100.00
5913;BME280;2982;42.684;23.356;2023-08-06T04:45:36;57515.69;;;-143.17;100.00
5913;BME280;2982;42.684;23.356;2023-08-06T04:48:01;57515.69;;;-143.17;100.00
5913;BME280;2982;42.684;23.356;2023-08-06T04:50:26;57515.69;;;-143.17;100.00
5913;BME280;2982;42.684;23.356;2023-08-06T04:52:51;57515.69;;;-143.17;100.00
5913;BME280;2982;42.684;23.356;2023-08-06T04:55:17;57515.69;;;-143.17;100.00
5913;BME280;2982;42.684;23.356;2023-08-06T04:57:42;57515.69;;;-143.17;100.00
5913;BME280;2982;42.684;23.356;2023-08-06T05:00:08;57515.69;;;-143.17;100.00
5913;BME280;2982;42.684;23.356;2023-08-06T05:02:33;57515.69;;;-143.17;100.00
5913;BME280;2982;42.684;23.356;2023-08-06T05:04:58;57515.69;;;-143.17;100.00
5913;BME280;2982;42.684;23.356;2023-08-06T05:07:24;57515.69;;;-143.17;100.00
5913;BME280;2982;42.684;23.356;2023-08-06T05:09:49;57515.69;;;-143.17;100.00
5913;BME280;2982;42.684;23.356;2023-08-06T05:12:14;57515.69;;;-143.17;100.00
5913;BME280;2982;42.684;23.356;2023-08-06T05:14:39;57515.69;;;-143.17;100.00
5913;BME280;2982;42.684;23.356;2023-08-06T05:17:05;57515.69;;;-143.17;100.00
5913;BME280;2982;42.684;23.356;2023-08-06T05:19:30;57515.69;;;-143.17;100.00
5913;BME280;2982;42.684;23.356;2023-08-06T05:21:55;57515.69;;;-143.17;100.00
5913;BME280;2982;42.684;23.356;2023-08-06T05:24:21;57515.69;;;-143.17;100.00
5913;BME280;2982;42.684;23.356;2023-08-06T05:26:46;57515.69;;;-143.17;100.00
5913;BME280;2982;42.684;23.356;2023-08-06T05:29:11;57515.69;;;-143.17;100.00
5913;BME280;2982;42.684;23.356;2023-08-06T05:31:37;57515.69;;;-143.17;100.00
5913;BME280;2982;42.684;23.356;2023-08-06T05:34:02;57515.69;;;-143.17;100.00
5913;BME280;2982;42.684;23.356;2023-08-06T05:36:27;57515.69;;;-143.17;100.00
5913;BME280;2982;42.684;23.356;2023-08-06T05:38:52;57515.69;;;-143.17;100.00
5913;BME280;2982;42.684;23.356;2023-08-06T05:41:18;57515.69;;;-143.17;100.00
5913;BME280;2982;42.684;23.356;2023-08-06T05:43:43;57515.69;;;-143.17;100.00
5913;BME280;2982;42.684;23.356;2023-08-06T05:46:08;57515.69;;;-143.17;100.00
5913;BME280;2982;42.684;23.356;2023-08-06T05:48:34;57515.69;;;-143.17;100.00
5913;BME280;2982;42.684;23.356;2023-08-06T05:50:59;57515.69;;;-143.17;100.00
5913;BME280;2982;42.684;23.356;2023-08-06T05:53:24;57515.69;;;-143.17;100.00
5913;BME280;2982;42.684;23.356;2023-08-06T05:55:50;57515.69;;;-143.17;100.00
5913;BME280;2982;42.684;23.356;2023-08-06T05:58:16;57515.69;;;-143.17;100.00
5913;BME280;2982;42.684;23.356;2023-08-06T06:00:41;57515.69;;;-143.17;100.00
5913;BME280;2982;42.684;23.356;2023-08-06T06:03:06;57515.69;;;-143.17;100.00
5913;BME280;2982;42.684;23.356;2023-08-06T06:05:31;57515.69;;;-143.17;100.00
5913;BME280;2982;42.684;23.356;2023-08-06T06:07:57;57515.69;;;-143.17;100.00
5913;BME280;2982;42.684;23.356;2023-08-06T06:10:22;57515.69;;;-143.17;100.00
5913;BME280;2982;42.684;23.356;2023-08-06T06:12:47;57515.69;;;-143.17;100.00
5913;BME280;2982;42.684;23.356;2023-08-06T06:15:13;57515.69;;;-143.17;100.00
5913;BME280;2982;42.684;23.356;2023-08-06T06:17:38;57515.69;;;-143.17;100.00
5913;BME280;2982;42.684;23.356;2023-08-06T06:20:04;57515.69;;;-143.17;100.00
5913;BME280;2982;42.684;23.356;2023-08-06T06:22:29;57515.69;;;-143.17;100.00
5913;BME280;2982;42.684;23.356;2023-08-06T06:24:55;57515.69;;;-143.17;100.00
5913;BME280;2982;42.684;23.356;2023-08-06T06:27:20;57515.69;;;-143.17;100.00
5913;BME280;2982;42.684;23.356;2023-08-06T06:29:45;57515.69;;;-143.17;100.00
5913;BME280;2982;42.684;23.356;2023-08-06T06:32:11;57515.69;;;-143.17;100.00
5913;BME280;2982;42.684;23.356;2023-08-06T06:34:36;57515.69;;;-143.17;100.00
5913;BME280;2982;42.684;23.356;2023-08-06T06:37:01;57515.69;;;-143.17;100.00
5913;BME280;2982;42.684;23.356;2023-08-06T06:39:26;57515.69;;;-143.17;100.00
5913;BME280;2982;42.684;23.356;2023-08-06T06:41:52;57515.69;;;-143.17;100.00
5913;BME280;2982;42.684;23.356;2023-08-06T06:44:17;57515.69;;;-143.17;100.00
5913;BME280;2982;42.684;23.356;2023-08-06T06:46:42;57515.69;;;-143.17;100.00
5913;BME280;2982;42.684;23.356;2023-08-06T06:49:07;57515.69;;;-143.17;100.00
5913;BME280;2982;42.684;23.356;2023-08-06T06:51:33;57515.69;;;-143.17;100.00
5913;BME280;2982;42.684;23.356;2023-08-06T06:53:58;57515.69;;;-143.17;100.00
5913;BME280;2982;42.684;23.356;2023-08-06T06:56:23;57515.69;;;-143.17;100.00
5913;BME280;2982;42.684;23.356;2023-08-06T06:58:49;57515.69;;;-143.17;100.00
5913;BME280;2982;42.684;23.356;2023-08-06T07:01:14;57515.69;;;-143.17;100.00
5913;BME280;2982;42.684;23.356;2023-08-06T07:03:39;57515.69;;;-143.17;100.00
5913;BME280;2982;42.684;23.356;2023-08-06T07:06:06;57515.69;;;-143.17;100.00
5913;BME280;2982;42.684;23.356;2023-08-06T07:08:31;57515.69;;;-143.17;100.00
5913;BME280;2982;42.684;23.356;2023-08-06T07:11:01;57515.69;;;-143.17;100.00
5913;BME280;2982;42.684;23.356;2023-08-06T07:13:27;57515.69;;;-143.17;100.00
5913;BME280;2982;42.684;23.356;2023-08-06T07:15:54;57515.69;;;-143.17;100.00
5913;BME280;2982;42.684;23.356;2023-08-06T07:18:19;57515.69;;;-143.17;100.00
5913;BME280;2982;42.684;23.356;2023-08-06T07:20:51;57515.69;;;-143.17;100.00
5913;BME280;2982;42.684;23.356;2023-08-06T07:23:19;57515.69;;;-143.17;100.00
5913;BME280;2982;42.684;23.356;2023-08-06T07:25:46;57515.69;;;-143.17;100.00
5913;BME280;2982;42.684;23.356;2023-08-06T07:28:12;57515.69;;;-143.17;100.00
5913;BME280;2982;42.684;23.356;2023-08-06T07:30:41;57515.69;;;-143.17;100.00
5913;BME280;2982;42.684;23.356;2023-08-06T07:33:07;57515.69;;;-143.17;100.00
5913;BME280;2982;42.684;23.356;2023-08-06T07:35:33;57515.69;;;-143.17;100.00
5913;BME280;2982;42.684;23.356;2023-08-06T07:37:59;57515.69;;;-143.17;100.00
5913;BME280;2982;42.684;23.356;2023-08-06T07:40:24;57515.69;;;-143.17;100.00
5913;BME280;2982;42.684;23.356;2023-08-06T07:42:49;57515.69;;;-143.17;100.00
5913;BME280;2982;42.684;23.356;2023-08-06T07:45:14;57515.69;;;-143.17;100.00
5913;BME280;2982;42.684;23.356;2023-08-06T07:47:40;57515.69;;;-143.17;100.00
5913;BME280;2982;42.684;23.356;2023-08-06T07:50:05;57515.69;;;-143.17;100.00
5913;BME280;2982;42.684;23.356;2023-08-06T07:52:31;57515.69;;;-143.17;100.00
5913;BME280;2982;42.684;23.356;2023-08-06T07:54:56;57515.69;;;-143.17;100.00
5913;BME280;2982;42.684;23.356;2023-08-06T07:57:21;57515.69;;;-143.17;100.00
5913;BME280;2982;42.684;23.356;2023-08-06T07:59:46;57515.69;;;-143.17;100.00
5913;BME280;2982;42.684;23.356;2023-08-06T08:02:12;57515.69;;;-143.17;100.00
5913;BME280;2982;42.684;23.356;2023-08-06T08:04:37;57515.69;;;-143.17;100.00
5913;BME280;2982;42.684;23.356;2023-08-06T08:07:02;57515.69;;;-143.17;100.00
5913;BME280;2982;42.684;23.356;2023-08-06T08:09:28;57515.69;;;-143.17;100.00
5913;BME280;2982;42.684;23.356;2023-08-06T08:11:53;57515.69;;;-143.17;100.00
5913;BME280;2982;42.684;23.356;2023-08-06T08:14:18;57515.69;;;-143.17;100.00
5913;BME280;2982;42.684;23.356;2023-08-06T08:16:44;57515.69;;;-143.17;100.00
5913;BME280;2982;42.684;23.356;2023-08-06T08:19:09;57515.69;;;-143.17;100.00
5913;BME280;2982;42.684;23.356;2023-08-06T08:21:34;57515.69;;;-143.17;100.00
5913;BME280;2982;42.684;23.356;2023-08-06T08:24:00;57515.69;;;-143.17;100.00
5913;BME280;2982;42.684;23.356;2023-08-06T08:26:25;57515.69;;;-143.17;100.00
5913;BME280;2982;42.684;23.356;2023-08-06T08:28:51;57515.69;;;-143.17;100.00
5913;BME280;2982;42.684;23.356;2023-08-06T08:31:16;57515.69;;;-143.17;100.00
5913;BME280;2982;42.684;23.356;2023-08-06T08:33:41;57515.69;;;-143.17;100.00
5913;BME280;2982;42.684;23.356;2023-08-06T08:36:06;57515.69;;;-143.17;100.00
5913;BME280;2982;42.684;23.356;2023-08-06T08:38:32;57515.69;;;-143.17;100.00
5913;BME280;2982;42.684;23.356;2023-08-06T08:40:57;57515.69;;;-143.17;100.00
5913;BME280;2982;42.684;23.356;2023-08-06T08:43:23;57515.69;;;-143.17;100.00
5913;BME280;2982;42.684;23.356;2023-08-06T08:45:53;57515.69;;;-143.17;100.00
5913;BME280;2982;42.684;23.356;2023-08-06T08:48:19;57515.69;;;-143.17;100.00
5913;BME280;2982;42.684;23.356;2023-08-06T08:50:45;57515.69;;;-143.17;100.00
5913;BME280;2982;42.684;23.356;2023-08-06T08:53:14;57515.69;;;-143.17;100.00
5913;BME280;2982;42.684;23.356;2023-08-06T08:55:40;57515.69;;;-143.17;100.00
5913;BME280;2982;42.684;23.356;2023-08-06T08:58:07;57515.69;;;-143.17;100.00
5913;BME280;2982;42.684;23.356;2023-08-06T09:00:33;57515.69;;;-143.17;100.00
5913;BME280;2982;42.684;23.356;2023-08-06T09:02:59;57515.69;;;-143.17;100.00
5913;BME280;2982;42.684;23.356;2023-08-06T09:05:28;57515.69;;;-143.17;100.00
5913;BME280;2982;42.684;23.356;2023-08-06T09:07:57;57515.69;;;-143.17;100.00
5913;BME280;2982;42.684;23.356;2023-08-06T09:10:23;57515.69;;;-143.17;100.00
5913;BME280;2982;42.684;23.356;2023-08-06T09:12:50;57515.69;;;-143.17;100.00
5913;BME280;2982;42.684;23.356;2023-08-06T09:15:16;57515.69;;;-143.17;100.00
5913;BME280;2982;42.684;23.356;2023-08-06T09:17:41;57515.69;;;-143.17;100.00
5913;BME280;2982;42.684;23.356;2023-08-06T09:20:13;57515.69;;;-143.17;100.00
5913;BME280;2982;42.684;23.356;2023-08-06T09:22:39;57515.69;;;-143.17;100.00
5913;BME280;2982;42.684;23.356;2023-08-06T09:25:06;57515.69;;;-143.17;100.00
5913;BME280;2982;42.684;23.356;2023-08-06T09:27:31;57515.69;;;-143.17;100.00
5913;BME280;2982;42.684;23.356;2023-08-06T09:29:57;57515.69;;;-143.17;100.00
5913;BME280;2982;42.684;23.356;2023-08-06T09:32:22;57515.69;;;-143.17;100.00
5913;BME280;2982;42.684;23.356;2023-08-06T09:34:55;57515.69;;;-143.17;100.00
5913;BME280;2982;42.684;23.356;2023-08-06T09:37:21;57515.69;;;-143.17;100.00
5913;BME280;2982;42.684;23.356;2023-08-06T09:39:46;57515.69;;;-143.17;100.00
5913;BME280;2982;42.684;23.356;2023-08-06T09:42:14;57515.69;;;-143.17;100.00
5913;BME280;2982;42.684;23.356;2023-08-06T09:44:40;57515.69;;;-143.17;100.00
5913;BME280;2982;42.684;23.356;2023-08-06T09:47:05;57515.69;;;-143.17;100.00
5913;BME280;2982;42.684;23.356;2023-08-06T09:52:00;57515.69;;;-143.17;100.00
5913;BME280;2982;42.684;23.356;2023-08-06T09:54:26;57515.69;;;-143.17;100.00
5913;BME280;2982;42.684;23.356;2023-08-06T09:56:52;57515.69;;;-143.17;100.00
5913;BME280;2982;42.684;23.356;2023-08-06T09:59:18;57515.69;;;-143.17;100.00
5913;BME280;2982;42.684;23.356;2023-08-06T10:01:45;57515.69;;;-143.17;100.00
5913;BME280;2982;42.684;23.356;2023-08-06T10:04:13;57515.69;;;-143.17;100.00
5913;BME280;2982;42.684;23.356;2023-08-06T10:06:38;57515.69;;;-143.17;100.00
5913;BME280;2982;42.684;23.356;2023-08-06T10:09:04;57515.69;;;-143.17;100.00
5913;BME280;2982;42.684;23.356;2023-08-06T10:11:30;57515.69;;;-143.17;100.00
5913;BME280;2982;42.684;23.356;2023-08-06T10:14:00;57515.69;;;-143.17;100.00
5913;BME280;2982;42.684;23.356;2023-08-06T10:16:27;57515.69;;;-143.17;100.00
5913;BME280;2982;42.684;23.356;2023-08-06T10:18:53;57515.69;;;-143.17;100.00
5913;BME280;2982;42.684;23.356;2023-08-06T10:21:19;57515.69;;;-143.17;100.00
5913;BME280;2982;42.684;23.356;2023-08-06T10:23:53;57515.69;;;-143.17;100.00
5913;BME280;2982;42.684;23.356;2023-08-06T10:26:19;57515.69;;;-143.17;100.00
5913;BME280;2982;42.684;23.356;2023-08-06T10:28:44;57515.69;;;-143.17;100.00
5913;BME280;2982;42.684;23.356;2023-08-06T10:31:10;57515.69;;;-143.17;100.00
5913;BME280;2982;42.684;23.356;2023-08-06T10:33:40;57515.69;;;-143.17;100.00
5913;BME280;2982;42.684;23.356;2023-08-06T10:36:08;57515.69;;;-143.17;100.00
5913;BME280;2982;42.684;23.356;2023-08-06T10:38:34;57515.69;;;-143.17;100.00
5913;BME280;2982;42.684;23.356;2023-08-06T10:43:26;57515.69;;;-143.17;100.00
5913;BME280;2982;42.684;23.356;2023-08-06T10:45:52;57515.69;;;-143.17;100.00
5913;BME280;2982;42.684;23.356;2023-08-06T10:50:54;57515.69;;;-143.17;100.00
5913;BME280;2982;42.684;23.356;2023-08-06T10:53:21;57515.69;;;-143.17;100.00
5913;BME280;2982;42.684;23.356;2023-08-06T10:55:46;57515.69;;;-143.17;100.00
5913;BME280;2982;42.684;23.356;2023-08-06T10:58:14;57515.69;;;-143.17;100.00
5913;BME280;2982;42.684;23.356;2023-08-06T11:00:40;57515.69;;;-143.17;100.00
5913;BME280;2982;42.684;23.356;2023-08-06T11:03:05;57515.69;;;-143.17;100.00
5913;BME280;2982;42.684;23.356;2023-08-06T11:05:30;57515.69;;;-143.17;100.00
5913;BME280;2982;42.684;23.356;2023-08-06T11:07:56;57515.69;;;-143.17;100.00
5913;BME280;2982;42.684;23.356;2023-08-06T11:10:21;57515.69;;;-143.17;100.00
5913;BME280;2982;42.684;23.356;2023-08-06T11:12:46;57515.69;;;-143.17;100.00
5913;BME280;2982;42.684;23.356;2023-08-06T11:15:12;57515.69;;;-143.17;100.00
5913;BME280;2982;42.684;23.356;2023-08-06T11:17:39;57515.69;;;-143.17;100.00
5913;BME280;2982;42.684;23.356;2023-08-06T11:20:05;57515.69;;;-143.17;100.00
5913;BME280;2982;42.684;23.356;2023-08-06T11:22:31;57515.69;;;-143.17;100.00
5913;BME280;2982;42.684;23.356;2023-08-06T11:24:56;57515.69;;;-143.17;100.00
5913;BME280;2982;42.684;23.356;2023-08-06T11:27:22;57515.69;;;-143.17;100.00
5913;BME280;2982;42.684;23.356;2023-08-06T11:29:47;57515.69;;;-143.17;100.00
5913;BME280;2982;42.684;23.356;2023-08-06T11:32:12;57515.69;;;-143.17;100.00
5913;BME280;2982;42.684;23.356;2023-08-06T11:34:39;57515.69;;;-143.17;100.00
5913;BME280;2982;42.684;23.356;2023-08-06T11:37:05;57515.69;;;-143.17;100.00
5913;BME280;2982;42.684;23.356;2023-08-06T11:39:34;57515.69;;;-143.17;100.00
5913;BME280;2982;42.684;23.356;2023-08-06T11:42:00;57515.69;;;-143.17;100.00
5913;BME280;2982;42.684;23.356;2023-08-06T11:44:30;57515.69;;;-143.17;100.00
5913;BME280;2982;42.684;23.356;2023-08-06T11:46:56;57515.69;;;-143.17;100.00
5913;BME280;2982;42.684;23.356;2023-08-06T11:52:14;57515.69;;;-143.17;100.00
5913;BME280;2982;42.684;23.356;2023-08-06T11:54:39;57515.69;;;-143.17;100.00
5913;BME280;2982;42.684;23.356;2023-08-06T11:57:08;57515.69;;;-143.17;100.00
5913;BME280;2982;42.684;23.356;2023-08-06T11:59:34;57515.69;;;-143.17;100.00
5913;BME280;2982;42.684;23.356;2023-08-06T12:02:03;57515.69;;;-143.17;100.00
5913;BME280;2982;42.684;23.356;2023-08-06T12:04:28;57515.69;;;-143.17;100.00
5913;BME280;2982;42.684;23.356;2023-08-06T12:06:54;57515.69;;;-143.17;100.00
5913;BME280;2982;42.684;23.356;2023-08-06T12:09:20;57515.69;;;-143.17;100.00
5913;BME280;2982;42.684;23.356;2023-08-06T12:11:46;57515.69;;;-143.17;100.00
5913;BME280;2982;42.684;23.356;2023-08-06T12:14:11;57515.69;;;-143.17;100.00
5913;BME280;2982;42.684;23.356;2023-08-06T12:16:36;57515.69;;;-143.17;100.00
5913;BME280;2982;42.684;23.356;2023-08-06T12:19:01;57515.69;;;-143.17;100.00
5913;BME280;2982;42.684;23.356;2023-08-06T12:21:27;57515.69;;;-143.17;100.00
5913;BME280;2982;42.684;23.356;2023-08-06T12:23:52;57515.69;;;-143.17;100.00
5913;BME280;2982;42.684;23.356;2023-08-06T12:26:17;57515.69;;;-143.17;100.00
5913;BME280;2982;42.684;23.356;2023-08-06T12:28:43;57515.69;;;-143.17;100.00
5913;BME280;2982;42.684;23.356;2023-08-06T12:31:08;57515.69;;;-143.17;100.00
5913;BME280;2982;42.684;23.356;2023-08-06T12:33:33;57515.69;;;-143.17;100.00
5913;BME280;2982;42.684;23.356;2023-08-06T12:35:58;57515.69;;;-143.17;100.00
5913;BME280;2982;42.684;23.356;2023-08-06T12:38:24;57515.69;;;-143.17;100.00
5913;BME280;2982;42.684;23.356;2023-08-06T12:40:49;57515.69;;;-143.17;100.00
5913;BME280;2982;42.684;23.356;2023-08-06T12:43:14;57515.69;;;-143.17;100.00
5913;BME280;2982;42.684;23.356;2023-08-06T12:45:41;57515.69;;;-143.17;100.00
5913;BME280;2982;42.684;23.356;2023-08-06T12:48:06;57515.69;;;-143.17;100.00
5913;BME280;2982;42.684;23.356;2023-08-06T12:50:31;57515.69;;;-143.17;100.00
5913;BME280;2982;42.684;23.356;2023-08-06T12:52:56;57515.69;;;-143.17;100.00
5913;BME280;2982;42.684;23.356;2023-08-06T12:55:22;57515.69;;;-143.17;100.00
5913;BME280;2982;42.684;23.356;2023-08-06T12:57:47;57515.69;;;-143.17;100.00
5913;BME280;2982;42.684;23.356;2023-08-06T13:00:12;57515.69;;;-143.17;100.00
5913;BME280;2982;42.684;23.356;2023-08-06T13:02:38;57515.69;;;-143.17;100.00